Latest Coastal Weather Observations for Maroochydore

IDQ60701

Issued at 7:52 am EST Tuesday 30 August 2016 (issued every 10 minutes, with the page automatically refreshed every 10 minutes)

About coastal observations | Map of coastal stations | Coastal observations for QLD | Marine services | Other Formats
Station Details ID: 040861 Name: SUNSHINE COAST AIRPORT Lat: -26.60 Lon: 153.09 Height: 3.3 m
Data from the previous 72 hours. | See also: Recent months at Maroochydore
Date/Time
EST
Temp
°C
Wind Pressure Rain since
9am
mm
Weather Cloud Vis
km
Sea
Height
m
Swell
Dir  Spd
kts
Gust
kts
hPa Trend Height
m
Period
s
Dir
30/07:30am 15.0 WSW 4 6 1027.6 - 0.0 - Partly cloudy 10 - - - -
30/07:00am 13.3 SW 2 4 1027.0 - 0.0 - Partly cloudy 10 - - - -
30/06:30am 11.5 WSW 4 5 1026.8 - 0.0 - Partly cloudy 10 - - - -
30/06:00am 10.8 W 4 5 1026.2 - 0.0 - Partly cloudy 10 - - - -
30/05:30am 11.1 WSW 3 4 1025.8 - 0.0 - Partly cloudy 10 - - - -
30/05:00am 11.1 W 3 4 1025.4 - 0.0 - Partly cloudy 10 - - - -
30/04:30am 11.0 WSW 3 4 1024.9 - 0.0 - Partly cloudy 10 - - - -
30/04:00am 10.5 CALM 0 0 1024.9 - 0.0 - Partly cloudy 10 - - - -
30/03:30am 10.4 CALM 0 0 1024.6 - 0.0 - Partly cloudy 10 - - - -
30/03:00am 10.9 WSW 2 5 1024.6 - 0.0 - Partly cloudy 10 - - - -
30/02:30am 11.2 WSW 3 4 1024.8 - 0.0 - Partly cloudy 10 - - - -
30/02:00am 10.5 WSW 3 4 1025.0 - 0.0 - Partly cloudy 10 - - - -
30/01:40am 10.0 SW 3 4 1025.2 - 0.0 - Partly cloudy 10 - - - -
30/01:30am 10.6 SW 3 5 1025.3 - 0.0 - Partly cloudy 4 - - - -
30/01:02am 10.0 CALM 0 0 1025.3 - 0.0 - Partly cloudy 6 - - - -
30/01:00am 10.6 CALM 0 0 1025.4 - 0.0 - Partly cloudy 8 - - - -
30/12:50am 10.9 CALM 0 0 1025.5 - 0.0 - Partly cloudy 10 - - - -
30/12:30am 11.0 SW 2 4 1025.7 - 0.0 - Partly cloudy 0.8 - - - -
30/12:18am 10.9 SW 3 4 1025.7 - 0.0 - - 5 - - - -
30/12:00am 11.8 SW 3 5 1025.9 - 0.0 - - 10 - - - -
 
Date/Time
EST
Temp
°C
Wind Pressure Rain since
9am
mm
Weather Cloud Vis
km
Sea
Height
m
Swell
Dir  Spd
kts
Gust
kts
hPa Trend Height
m
Period
s
Dir
29/11:30pm 12.5 SW 3 4 1026.0 - 0.0 - - 10 - - - -
29/11:00pm 13.2 WSW 5 6 1026.4 - 0.0 - - 10 - - - -
29/10:30pm 14.4 WSW 4 5 1026.2 - 0.0 - Partly cloudy 10 - - - -
29/10:00pm 18.1 ENE 8 9 1026.2 - 0.0 - - 10 - - - -
29/09:30pm 18.3 ENE 8 9 1026.4 - 0.0 - - 10 - - - -
29/09:00pm 18.4 ENE 8 11 1026.3 - 0.0 - - 10 - - - -
29/08:30pm 18.5 ENE 8 11 1026.3 - 0.0 - - 10 - - - -
29/08:00pm 18.5 ENE 8 11 1026.2 - 0.0 - Partly cloudy 10 - - - -
29/07:30pm 18.9 ENE 9 12 1026.0 - 0.0 - - 10 - - - -
29/07:00pm 18.8 ENE 9 13 1025.7 - 0.0 - Partly cloudy 10 - - - -
29/06:30pm 18.9 ENE 9 11 1025.4 - 0.0 - Partly cloudy 10 - - - -
29/06:00pm 18.7 ENE 8 11 1025.1 - 0.0 - - 10 - - - -
29/05:30pm 19.0 ENE 8 11 1025.0 - 0.0 - - 10 - - - -
29/05:00pm 19.8 ENE 6 7 1024.8 - 0.0 - - 10 - - - -
29/04:30pm 20.3 ENE 7 11 1024.7 - 0.0 - - 10 - - - -
29/04:00pm 20.7 ENE 8 11 1024.5 - 0.0 - - 10 - - - -
29/03:30pm 21.0 ENE 8 11 1024.4 - 0.0 - - 10 - - - -
29/03:00pm 21.4 ENE 9 11 1024.0 - 0.0 - - 10 - - - -
29/02:30pm 21.5 ENE 9 11 1023.8 - 0.0 - - 10 - - - -
29/02:00pm 21.7 ENE 8 11 1024.2 - 0.0 - - 10 - - - -
29/01:30pm 21.2 ENE 9 11 1024.1 - 0.0 - - 10 - - - -
29/01:00pm 21.4 E 9 11 1024.3 - 0.0 - - 10 - - - -
29/12:30pm 21.7 E 8 11 1024.6 - 0.0 - - 10 - - - -
29/12:00pm 21.4 E 9 11 1025.1 - 0.0 - - 10 - - - -
29/11:30am 21.0 E 8 10 1025.3 - 0.0 - - 10 - - - -
29/11:00am 21.3 ESE 7 9 1025.9 - 0.0 - - 10 - - - -
29/10:30am 21.1 E 7 8 1025.9 - 0.0 - Partly cloudy 10 - - - -
29/10:00am 21.0 ESE 6 8 1026.0 - 0.0 - - 10 - - - -
29/09:30am 20.2 ESE 6 8 1025.9 - 0.0 - Partly cloudy 10 - - - -
29/09:00am 18.9 SSW 2 7 1025.8 - 0.0 - Mostly clear 10 - - - -
29/08:30am 16.9 CALM 0 0 1025.8 - 0.0 - Partly cloudy 10 - - - -
29/08:00am 14.7 CALM 0 0 1025.6 - 0.0 - - 10 - - - -
29/07:30am 12.8 WSW 3 4 1025.2 - 0.0 - - 10 - - - -
29/07:00am 11.3 SW 3 4 1024.7 - 0.0 - - 10 - - - -
29/06:37am 9.5 W 3 4 1024.4 - 0.0 - - 10 - - - -
29/06:30am 8.9 W 3 4 1024.2 - 0.0 - - 10 - - - -
29/06:00am 8.3 W 5 5 1023.7 - 0.0 - - 7 - - - -
29/05:30am 8.5 W 4 5 1023.3 - 0.0 - - 3 - - - -
29/05:00am 8.6 W 4 5 1023.0 - 0.0 - - 10 - - - -
29/04:33am 8.7 W 4 5 1022.8 - 0.0 - - 4 - - - -
29/04:30am 8.6 W 4 5 1022.8 - 0.0 - - 10 - - - -
29/04:17am 8.8 W 5 6 1022.9 - 0.0 - - 9 - - - -
29/04:00am 8.9 W 5 6 1022.9 - 0.0 - - 6 - - - -
29/03:30am 8.9 W 4 5 1022.7 - 0.0 - - 0.7 - - - -
29/03:17am 9.0 W 5 5 1022.7 - 0.0 - - 5 - - - -
29/03:00am 8.9 W 5 5 1022.8 - 0.0 - Mostly clear 8 - - - -
29/02:30am 9.1 W 4 5 1022.8 - 0.0 - Partly cloudy 2 - - - -
29/02:20am 9.4 W 5 6 1022.8 - 0.0 - - 6 - - - -
29/02:00am 9.9 W 4 5 1023.0 - 0.0 - - 8 - - - -
29/01:30am 9.2 WSW 5 6 1023.2 - 0.0 - - 10 - - - -
29/01:00am 9.6 W 4 5 1023.3 - 0.0 - - 10 - - - -
29/12:30am 9.9 W 4 5 1023.4 - 0.0 - - 10 - - - -
29/12:00am 10.1 W 5 5 1023.3 - 0.0 - - 10 - - - -
 
Date/Time
EST
Temp
°C
Wind Pressure Rain since
9am
mm
Weather Cloud Vis
km
Sea
Height
m
Swell
Dir  Spd
kts
Gust
kts
hPa Trend Height
m
Period
s
Dir
28/11:30pm 10.1 W 5 6 1023.3 - 0.0 - - 10 - - - -
28/11:00pm 10.1 W 4 5 1023.2 - 0.0 - - 8 - - - -
28/10:30pm 10.9 W 4 4 1023.1 - 0.0 - - 10 - - - -
28/10:00pm 10.2 WSW 4 5 1023.2 - 0.0 - - 10 - - - -
28/09:30pm 10.0 WSW 4 5 1023.2 - 0.0 - - 10 - - - -
28/09:00pm 11.6 SW 4 5 1023.0 - 0.0 - - 10 - - - -
28/08:30pm 12.0 WSW 3 4 1022.9 - 0.0 - - 10 - - - -
28/08:00pm 13.1 W 6 7 1022.9 - 0.0 - - 10 - - - -
28/07:30pm 16.3 ENE 5 7 1022.5 - 0.0 - - 10 - - - -
28/07:00pm 17.7 E 5 7 1022.2 - 0.0 - - 10 - - - -
28/06:30pm 18.1 E 7 9 1022.1 - 0.0 - - 10 - - - -
28/06:00pm 18.4 E 8 10 1021.8 - 0.0 - - 10 - - - -
28/05:30pm 18.5 E 8 11 1021.5 - 0.0 - - 10 - - - -
28/05:00pm 19.1 E 9 11 1021.2 - 0.0 - - 10 - - - -
28/04:30pm 19.6 ESE 9 12 1021.0 - 0.0 - - 10 - - - -
28/04:00pm 20.2 ESE 9 11 1020.7 - 0.0 - - 10 - - - -
28/03:30pm 20.1 ESE 11 13 1021.0 - 0.0 - - 10 - - - -
28/03:00pm 20.5 ESE 11 13 1021.1 - 0.0 - - 10 - - - -
28/02:30pm 20.6 ESE 11 14 1021.1 - 0.0 - - 10 - - - -
28/02:00pm 21.3 ESE 10 13 1021.1 - 0.0 - - 10 - - - -
28/01:30pm 21.4 ESE 11 14 1021.4 - 0.0 - - 10 - - - -
28/01:00pm 21.1 ESE 11 14 1021.8 - 0.0 - - 10 - - - -
28/12:30pm 21.6 SE 12 16 1022.2 - 0.0 - - 10 - - - -
28/12:00pm 21.0 SE 12 16 1022.7 - 0.0 - - 10 - - - -
28/11:30am 21.3 SE 11 14 1023.2 - 0.0 - - 10 - - - -
28/11:00am 21.5 SE 11 17 1023.4 - 0.0 - - 10 - - - -
28/10:30am 21.4 S 9 17 1023.8 - 0.0 - - 10 - - - -
28/10:00am 20.3 S 11 15 1024.0 - 0.0 - - 10 - - - -
28/09:30am 19.9 SSW 10 14 1024.0 - 0.0 - - 10 - - - -
28/09:00am 18.9 SSW 10 13 1023.9 - 0.0 - - 10 - - - -
28/08:30am 17.3 WSW 7 11 1023.7 - 0.0 - - 10 - - - -
28/08:00am 14.8 W 5 6 1023.5 - 0.0 - - 10 - - - -
28/07:30am 11.3 W 4 5 1023.1 - 0.0 - - 10 - - - -
28/07:00am 8.5 W 3 6 1023.0 - 0.0 - - 10 - - - -
28/06:30am 6.1 W 6 6 1022.5 - 0.0 - - 10 - - - -
28/06:00am 5.5 W 4 5 1022.1 - 0.0 - - 10 - - - -
28/05:30am 5.6 W 4 5 1021.9 - 0.0 - - 10 - - - -
28/05:00am 6.0 WNW 6 6 1021.7 - 0.0 - - 10 - - - -
28/04:30am 5.9 W 4 5 1021.3 - 0.0 - - 10 - - - -
28/04:00am 5.5 WNW 4 5 1021.3 - 0.0 - - 10 - - - -
28/03:30am 5.7 WSW 5 6 1021.1 - 0.0 - - 10 - - - -
28/03:00am 5.8 WSW 3 4 1020.7 - 0.0 - - 10 - - - -
28/02:30am 6.0 W 5 6 1021.1 - 0.0 - - 10 - - - -
28/02:00am 6.2 W 5 6 1021.5 - 0.0 - - 10 - - - -
28/01:30am 6.3 W 5 6 1021.5 - 0.0 - - 10 - - - -
28/01:00am 6.0 W 4 5 1021.4 - 0.0 - - 10 - - - -
28/12:30am 5.8 W 5 6 1021.6 - 0.0 - - 10 - - - -
28/12:00am 5.6 SW 3 5 1021.7 - 0.0 - - 10 - - - -
 
Date/Time
EST
Temp
°C
Wind Pressure Rain since
9am
mm
Weather Cloud Vis
km
Sea
Height
m
Swell
Dir  Spd
kts
Gust
kts
hPa Trend Height
m
Period
s
Dir
27/11:30pm 6.3 SSE 3 5 1021.8 - 0.0 - - 10 - - - -
27/11:00pm 5.5 CALM 0 0 1021.5 - 0.0 - - 10 - - - -
27/10:30pm 5.9 S 1 4 1021.5 - 0.0 - - 10 - - - -
27/10:00pm 7.2 WSW 5 6 1021.3 - 0.0 - - 10 - - - -
27/09:30pm 8.2 W 5 6 1021.2 - 0.0 - - 10 - - - -
27/09:00pm 9.1 WNW 5 7 1021.0 - 0.0 - - 10 - - - -
27/08:30pm 10.3 WNW 4 5 1020.9 - 0.0 - - 10 - - - -
27/08:00pm 10.5 W 6 6 1020.6 - 0.0 - - 10 - - - -
27/07:30pm 12.3 W 6 8 1020.4 - 0.0 - - 10 - - - -
27/07:00pm 12.2 W 4 5 1020.2 - 0.0 - - 10 - - - -
27/06:30pm 13.4 WNW 5 6 1019.8 - 0.0 - - 10 - - - -
27/06:00pm 13.5 W 5 5 1019.3 - 0.0 - - 10 - - - -
27/05:30pm 17.0 SW 6 9 1018.7 - 0.0 - - 10 - - - -
27/05:00pm 18.5 ESE 5 8 1018.4 - 0.0 - Partly cloudy 10 - - - -
27/04:30pm 18.8 ESE 8 11 1018.0 - 0.0 - Partly cloudy 10 - - - -
27/04:00pm 19.4 SE 9 13 1017.8 - 0.0 - Partly cloudy 10 - - - -
27/03:30pm 20.3 S 9 14 1017.7 - 0.0 - Partly cloudy 10 - - - -
27/03:00pm 20.3 SW 7 9 1017.5 - 0.0 - Partly cloudy 10 - - - -
27/02:30pm 20.8 WSW 11 15 1017.4 - 0.0 - Partly cloudy 10 - - - -
27/02:00pm 20.3 SSW 9 17 1017.5 - 0.0 - - 10 - - - -
27/01:30pm 19.5 S 6 8 1018.0 - 0.0 - Partly cloudy 10 - - - -
27/01:00pm 20.2 SSW 7 11 1018.2 - 0.0 - Partly cloudy 10 - - - -
27/12:30pm 20.7 S 8 12 1018.6 - 0.0 - Partly cloudy 10 - - - -
27/12:00pm 20.3 SW 8 12 1018.9 - 0.0 - - 10 - - - -
27/11:30am 19.4 SW 9 15 1019.4 - 0.0 - - 10 - - - -
27/11:00am 19.3 SSW 12 16 1019.6 - 0.0 - - 10 - - - -
27/10:30am 19.2 S 9 12 1019.8 - 0.0 - - 10 - - - -
27/10:00am 18.7 SW 11 12 1019.9 - 0.0 - - 10 - - - -
27/09:30am 17.9 S 11 14 1020.1 - 0.0 - - 10 - - - -
27/09:00am 16.8 SW 10 15 1020.2 - 0.0 - - 10 - - - -
27/08:30am 15.6 SW 10 14 1019.9 - 0.0 - - 10 - - - -
27/08:00am 14.4 SW 8 11 1019.5 - 0.0 - - 10 - - - -

Other Formats:

Comma delimited format used in spreadsheet applications
http://www.bom.gov.au/fwo/IDQ60701/IDQ60701.94569.axf

JavaScript Object Notation format (JSON) in row-major order
http://www.bom.gov.au/fwo/IDQ60701/IDQ60701.94569.json